createdAt,value
2023-04-15T00:00:35.687Z,7.1399
2023-04-15T00:01:36.756Z,7.0029
2023-04-15T00:02:37.890Z,7.1928
2023-04-15T00:03:39.123Z,7.4548
2023-04-15T00:04:39.857Z,7.5910
2023-04-15T00:05:40.935Z,7.7861
2023-04-15T00:06:41.934Z,7.8727
2023-04-15T00:07:43.720Z,7.8632
2023-04-15T00:08:43.875Z,7.7945
2023-04-15T00:09:44.952Z,7.6516
2023-04-15T00:10:46.017Z,7.4829
2023-04-15T00:11:47.029Z,7.4055
2023-04-15T00:12:48.059Z,7.4607
2023-04-15T00:13:49.104Z,7.4906
2023-04-15T00:14:50.185Z,7.4697
2023-04-15T00:15:51.240Z,7.4535
2023-04-15T00:16:52.340Z,7.4453
2023-04-15T00:17:53.286Z,7.5245
2023-04-15T00:18:54.343Z,7.6006
2023-04-15T00:19:55.358Z,7.6205
2023-04-15T00:20:56.464Z,7.5000
2023-04-15T00:21:57.453Z,7.3026
2023-04-15T00:22:58.506Z,7.1805
2023-04-15T00:23:59.533Z,7.1850
2023-04-15T00:25:00.577Z,7.1229
2023-04-15T00:26:01.667Z,7.1495
2023-04-15T00:27:02.698Z,7.2730
2023-04-15T00:28:03.700Z,7.3453
2023-04-15T00:29:04.749Z,7.3122
2023-04-15T00:30:05.783Z,7.3200
2023-04-15T00:31:06.884Z,7.3579
2023-04-15T00:32:07.900Z,7.2655
2023-04-15T00:33:08.923Z,7.2230
2023-04-15T00:34:09.988Z,7.2449
2023-04-15T00:35:11.048Z,7.2046
2023-04-15T00:36:12.071Z,7.2044
2023-04-15T00:37:13.081Z,7.2681
2023-04-15T00:38:14.157Z,7.3149
2023-04-15T00:39:15.239Z,7.2801
2023-04-15T00:40:16.230Z,7.1903
2023-04-15T00:41:17.326Z,7.0559
2023-04-15T00:42:18.364Z,6.9793
2023-04-15T00:43:19.365Z,7.0028
2023-04-15T00:44:20.399Z,6.9907
2023-04-15T00:45:21.434Z,7.0399
2023-04-15T00:46:22.542Z,7.0002
2023-04-15T00:47:23.621Z,7.0526
2023-04-15T00:48:24.568Z,7.1640
2023-04-15T00:49:25.624Z,7.1462
2023-04-15T00:50:26.693Z,7.0737
2023-04-15T00:51:27.708Z,7.0325
2023-04-15T00:52:28.825Z,7.0079
2023-04-15T00:53:29.834Z,7.0012
2023-04-15T00:54:30.843Z,7.1268
2023-04-15T00:55:31.925Z,7.1838
2023-04-15T00:56:32.987Z,7.2403
2023-04-15T00:57:34.111Z,7.3485
2023-04-15T00:58:35.143Z,7.4814
2023-04-15T00:59:36.195Z,7.5922
2023-04-15T01:00:37.230Z,7.6303
2023-04-15T01:01:38.322Z,7.5837
2023-04-15T01:02:39.598Z,7.5384
2023-04-15T01:03:40.467Z,7.4696
2023-04-15T01:04:41.393Z,7.4391
2023-04-15T01:05:42.442Z,7.3919
2023-04-15T01:06:43.534Z,7.2639
2023-04-15T01:07:44.596Z,7.2584
2023-04-15T01:08:45.626Z,7.2881
2023-04-15T01:09:46.594Z,7.3074
2023-04-15T01:10:47.666Z,7.3670
2023-04-15T01:11:48.724Z,7.5704
2023-04-15T01:12:49.733Z,7.6792
2023-04-15T01:13:50.828Z,7.6862
2023-04-15T01:14:51.833Z,7.6673
2023-04-15T01:15:52.845Z,7.5630
2023-04-15T01:16:53.860Z,7.5200
2023-04-15T01:17:55.029Z,7.5117
2023-04-15T01:18:55.947Z,7.5082
2023-04-15T01:19:57.015Z,7.5030
2023-04-15T01:20:58.031Z,7.5741
2023-04-15T01:21:59.072Z,7.7222
2023-04-15T01:23:00.263Z,7.7599
2023-04-15T01:24:01.170Z,7.8354
2023-04-15T01:25:02.202Z,7.9481
2023-04-15T01:26:03.272Z,8.0366
2023-04-15T01:27:04.278Z,8.0551
2023-04-15T01:28:05.383Z,7.9735
2023-04-15T01:29:06.344Z,7.8882
2023-04-15T01:30:07.453Z,7.8725
2023-04-15T01:31:08.518Z,7.8032
2023-04-15T01:32:09.472Z,7.8329
2023-04-15T01:33:10.531Z,7.9398
2023-04-15T01:34:11.555Z,7.9840
2023-04-15T01:35:12.608Z,7.9672
2023-04-15T01:36:13.613Z,8.0428
2023-04-15T01:37:14.650Z,8.1009
2023-04-15T01:38:15.730Z,8.1053
2023-04-15T01:39:16.829Z,8.1321
2023-04-15T01:40:17.778Z,8.1364
2023-04-15T01:41:18.833Z,8.0917
2023-04-15T01:42:19.850Z,8.0963
2023-04-15T01:43:20.926Z,8.0519
2023-04-15T01:44:21.932Z,8.0765
2023-04-15T01:45:22.951Z,8.0974
2023-04-15T01:46:24.021Z,8.1291
2023-04-15T01:47:25.072Z,8.1772
2023-04-15T01:48:26.145Z,8.2799
2023-04-15T01:49:27.127Z,8.2235
2023-04-15T01:50:28.090Z,8.1447
2023-04-15T01:51:29.144Z,8.0485
2023-04-15T01:52:30.171Z,8.2588
2023-04-15T01:53:31.226Z,8.6975
2023-04-15T01:54:32.262Z,8.6456
2023-04-15T01:55:33.318Z,8.4738
2023-04-15T01:56:34.351Z,8.3861
2023-04-15T01:57:35.372Z,8.3022
2023-04-15T01:58:36.472Z,8.1720
2023-04-15T01:59:37.473Z,8.0879
2023-04-15T02:00:38.539Z,8.0200
2023-04-15T02:01:39.573Z,7.9727
2023-04-15T02:02:40.746Z,8.0292
2023-04-15T02:03:41.781Z,7.9835
2023-04-15T02:04:42.685Z,7.9215
2023-04-15T02:05:43.702Z,7.9132
2023-04-15T02:06:44.731Z,7.9050
2023-04-15T02:07:45.769Z,7.8938
2023-04-15T02:08:46.869Z,7.9353
2023-04-15T02:09:47.876Z,7.8879
2023-04-15T02:10:48.915Z,7.7473
2023-04-15T02:11:49.977Z,7.7413
2023-04-15T02:12:51.014Z,7.8049
2023-04-15T02:13:52.096Z,7.7041
2023-04-15T02:14:53.102Z,7.6096
2023-04-15T02:15:54.140Z,7.7017
2023-04-15T02:16:55.242Z,7.7231
2023-04-15T02:17:56.228Z,7.6237
2023-04-15T02:18:57.283Z,7.5941
2023-04-15T02:19:58.280Z,7.6404
2023-04-15T02:20:59.393Z,7.6521
2023-04-15T02:22:00.372Z,7.8123
2023-04-15T02:23:01.424Z,7.9950
2023-04-15T02:24:02.500Z,8.1277
2023-04-15T02:25:03.531Z,8.2637
2023-04-15T02:26:04.539Z,8.3308
2023-04-15T02:27:05.556Z,8.4348
2023-04-15T02:28:06.622Z,8.5881
2023-04-15T02:29:07.661Z,8.6624
2023-04-15T02:30:08.683Z,8.5420
2023-04-15T02:31:09.775Z,8.4781
2023-04-15T02:32:10.914Z,8.4829
2023-04-15T02:33:11.838Z,8.3692
2023-04-15T02:34:12.898Z,8.2006
2023-04-15T02:35:13.996Z,8.1508
2023-04-15T02:36:14.961Z,7.9984
2023-04-15T02:37:16.017Z,7.8968
2023-04-15T02:38:17.089Z,7.8382
2023-04-15T02:39:18.085Z,7.7494
2023-04-15T02:40:19.239Z,7.7666
2023-04-15T02:41:20.321Z,7.8271
2023-04-15T02:42:21.314Z,7.7834
2023-04-15T02:43:22.356Z,7.8201
2023-04-15T02:44:23.378Z,7.8537
2023-04-15T02:45:24.505Z,7.9035
2023-04-15T02:46:25.588Z,8.0471
2023-04-15T02:47:26.593Z,7.9681
2023-04-15T02:48:27.557Z,7.8632
2023-04-15T02:49:28.752Z,7.7326
2023-04-15T02:50:30.071Z,7.8075
2023-04-15T02:51:30.870Z,7.9824
2023-04-15T02:52:31.754Z,8.1548
2023-04-15T02:53:32.831Z,8.1305
2023-04-15T02:54:33.840Z,8.0603
2023-04-15T02:55:34.916Z,8.0138
2023-04-15T02:56:35.912Z,7.9787
2023-04-15T02:57:36.989Z,7.8674
2023-04-15T02:58:37.995Z,7.8577
2023-04-15T02:59:39.037Z,7.9110
2023-04-15T03:00:40.151Z,7.8527
2023-04-15T03:01:41.088Z,7.9061
2023-04-15T03:02:42.461Z,7.9515
2023-04-15T03:03:43.380Z,8.0162
2023-04-15T03:04:44.350Z,7.9452
2023-04-15T03:05:45.410Z,7.9460
2023-04-15T03:06:46.369Z,8.0945
2023-04-15T03:07:47.424Z,8.2833
2023-04-15T03:08:48.549Z,8.3424
2023-04-15T03:09:49.515Z,8.3787
2023-04-15T03:10:50.572Z,8.3613
2023-04-15T03:11:51.573Z,8.3615
2023-04-15T03:12:52.619Z,8.2747
2023-04-15T03:13:53.689Z,8.3579
2023-04-15T03:14:54.718Z,8.4714
2023-04-15T03:15:55.887Z,8.6381
2023-04-15T03:16:56.830Z,8.7348
2023-04-15T03:17:57.930Z,8.6498
2023-04-15T03:18:59.020Z,8.6752
2023-04-15T03:19:59.964Z,8.7512
2023-04-15T03:21:01.027Z,8.7790
2023-04-15T03:22:02.016Z,8.6951
2023-04-15T03:23:03.058Z,8.6812
2023-04-15T03:24:04.200Z,8.6929
2023-04-15T03:25:05.145Z,8.6931
2023-04-15T03:26:06.238Z,8.6665
2023-04-15T03:27:07.294Z,8.7167
2023-04-15T03:28:08.276Z,8.5777
2023-04-15T03:29:09.318Z,8.4861
2023-04-15T03:30:10.334Z,8.3578
2023-04-15T03:31:11.458Z,8.3158
2023-04-15T03:32:12.508Z,8.2679
2023-04-15T03:33:13.400Z,8.2078
2023-04-15T03:34:14.441Z,8.1977
2023-04-15T03:35:15.491Z,8.3043
2023-04-15T03:36:16.569Z,8.2386
2023-04-15T03:37:17.574Z,8.2028
2023-04-15T03:38:18.597Z,8.1282
2023-04-15T03:39:19.651Z,8.1537
2023-04-15T03:40:20.685Z,8.1713
2023-04-15T03:41:21.756Z,8.3588
2023-04-15T03:42:22.766Z,8.6562
2023-04-15T03:43:23.778Z,8.9079
2023-04-15T03:44:24.854Z,8.9499
2023-04-15T03:45:25.855Z,9.2097
2023-04-15T03:46:26.962Z,9.4776
2023-04-15T03:47:27.971Z,9.4889
2023-04-15T03:48:29.005Z,9.3695
2023-04-15T03:49:30.025Z,9.2137
2023-04-15T03:50:31.054Z,8.9702
2023-04-15T03:51:32.126Z,8.9053
2023-04-15T03:52:33.151Z,8.6517
2023-04-15T03:53:34.187Z,8.5823
2023-04-15T03:54:35.238Z,8.7557
2023-04-15T03:55:36.297Z,8.9400
2023-04-15T03:56:37.379Z,8.9884
2023-04-15T03:57:38.390Z,8.9740
2023-04-15T03:58:39.433Z,8.9367
2023-04-15T03:59:40.476Z,9.0377
2023-04-15T04:00:41.575Z,9.1329
2023-04-15T04:01:42.688Z,9.0614
2023-04-15T04:02:43.726Z,8.9238
2023-04-15T04:03:44.813Z,8.7787
2023-04-15T04:04:45.714Z,8.7896
2023-04-15T04:05:46.754Z,8.7661
2023-04-15T04:06:47.828Z,8.7849
2023-04-15T04:07:48.821Z,8.7091
2023-04-15T04:08:49.873Z,8.4735
2023-04-15T04:09:50.934Z,8.2742
2023-04-15T04:10:51.953Z,8.2285
2023-04-15T04:11:53.033Z,8.1128
2023-04-15T04:12:54.039Z,8.0003
2023-04-15T04:13:55.133Z,7.9785
2023-04-15T04:14:56.170Z,7.9383
2023-04-15T04:15:57.334Z,7.8088
2023-04-15T04:16:58.335Z,7.7393
2023-04-15T04:17:59.326Z,7.8201
2023-04-15T04:19:00.612Z,7.9629
2023-04-15T04:20:01.381Z,7.9955
2023-04-15T04:21:02.390Z,7.9406
2023-04-15T04:22:03.516Z,8.0112
2023-04-15T04:23:04.467Z,7.9698
2023-04-15T04:24:05.672Z,7.9315
2023-04-15T04:25:06.705Z,7.8401
2023-04-15T04:26:07.772Z,7.7372
2023-04-15T04:27:08.829Z,7.8886
2023-04-15T04:28:09.837Z,7.9909
2023-04-15T04:29:10.869Z,7.8887
2023-04-15T04:30:11.933Z,7.8625
2023-04-15T04:31:13.054Z,7.9072
2023-04-15T04:32:14.123Z,8.0161
2023-04-15T04:33:15.075Z,8.1118
2023-04-15T04:34:16.074Z,8.0083
2023-04-15T04:35:17.153Z,7.9441
2023-04-15T04:36:18.375Z,7.8900
2023-04-15T04:37:19.301Z,7.9889
2023-04-15T04:38:20.281Z,8.1087
2023-04-15T04:39:21.389Z,8.2422
2023-04-15T04:40:22.371Z,8.3373
2023-04-15T04:41:23.374Z,8.2059
2023-04-15T04:42:24.545Z,8.0659
2023-04-15T04:43:25.487Z,8.1070
2023-04-15T04:44:26.649Z,8.1589
2023-04-15T04:45:27.557Z,8.2333
2023-04-15T04:46:28.634Z,8.1597
2023-04-15T04:47:29.782Z,8.0583
2023-04-15T04:48:30.705Z,7.9773
2023-04-15T04:49:31.722Z,8.0479
2023-04-15T04:50:32.771Z,8.0769
2023-04-15T04:51:33.828Z,8.1028
2023-04-15T04:52:34.975Z,8.0378
2023-04-15T04:53:35.931Z,7.8349
2023-04-15T04:54:36.972Z,7.7592
2023-04-15T04:55:38.028Z,7.7998
2023-04-15T04:56:39.070Z,7.8514
2023-04-15T04:57:40.168Z,7.7951
2023-04-15T04:58:41.108Z,7.7776
2023-04-15T04:59:42.209Z,7.8867
2023-04-15T05:00:43.199Z,8.0310
2023-04-15T05:01:44.474Z,7.9683
2023-04-15T05:02:45.515Z,8.1536
2023-04-15T05:03:46.422Z,8.3111
2023-04-15T05:04:47.365Z,8.2671
2023-04-15T05:05:48.508Z,8.3153
2023-04-15T05:06:49.533Z,8.3599
2023-04-15T05:07:50.547Z,8.6217
2023-04-15T05:08:51.537Z,8.5257
2023-04-15T05:09:52.663Z,8.1881
2023-04-15T05:10:53.616Z,8.1424
2023-04-15T05:11:54.723Z,8.0064
2023-04-15T05:12:55.805Z,7.8668
2023-04-15T05:13:56.794Z,7.8143
2023-04-15T05:14:57.829Z,7.8581
2023-04-15T05:15:58.924Z,7.8500
2023-04-15T05:17:00.454Z,8.0426
2023-04-15T05:18:00.934Z,8.3120
2023-04-15T05:19:02.179Z,8.6055
2023-04-15T05:20:02.967Z,8.7845
2023-04-15T05:21:04.035Z,8.7673
2023-04-15T05:22:05.059Z,8.9169
2023-04-15T05:23:06.159Z,9.0625
2023-04-15T05:24:07.137Z,8.9999
2023-04-15T05:25:08.190Z,9.1609
2023-04-15T05:26:09.240Z,9.1743
2023-04-15T05:27:10.261Z,9.0731
2023-04-15T05:28:11.372Z,8.9119
2023-04-15T05:29:12.349Z,8.8277
2023-04-15T05:30:13.842Z,8.7079
2023-04-15T05:31:14.513Z,8.6560
2023-04-15T05:32:15.491Z,8.6976
2023-04-15T05:33:16.603Z,8.6034
2023-04-15T05:34:17.562Z,8.5108
2023-04-15T05:35:18.640Z,8.4936
2023-04-15T05:36:19.659Z,8.4129
2023-04-15T05:37:20.700Z,8.4295
2023-04-15T05:38:21.774Z,8.4060
2023-04-15T05:39:22.775Z,8.3548
2023-04-15T05:40:23.840Z,8.4391
2023-04-15T05:41:24.878Z,8.4305
2023-04-15T05:42:25.916Z,8.4542
2023-04-15T05:43:26.993Z,8.5025
2023-04-15T05:44:28.054Z,8.5893
2023-04-15T05:45:29.059Z,8.5324
2023-04-15T05:46:30.144Z,8.4477
2023-04-15T05:47:31.147Z,8.4435
2023-04-15T05:48:32.192Z,8.5662
2023-04-15T05:49:33.185Z,8.4609
2023-04-15T05:50:34.260Z,8.2403
2023-04-15T05:51:35.297Z,8.3483
2023-04-15T05:52:36.323Z,8.4301
2023-04-15T05:53:37.452Z,8.4468
2023-04-15T05:54:38.971Z,8.5678
2023-04-15T05:55:39.478Z,8.6197
2023-04-15T05:56:40.492Z,8.5545
2023-04-15T05:57:41.574Z,8.5230
2023-04-15T05:58:42.617Z,8.4896
2023-04-15T05:59:43.614Z,8.5540
2023-04-15T06:00:44.678Z,8.6577
2023-04-15T06:01:45.710Z,8.7418
2023-04-15T06:02:46.961Z,8.6803
2023-04-15T06:03:47.938Z,8.5194
2023-04-15T06:04:48.846Z,8.4645
2023-04-15T06:05:49.894Z,8.4972
2023-04-15T06:06:50.918Z,8.6548
2023-04-15T06:07:52.017Z,8.7591
2023-04-15T06:08:53.112Z,8.7643
2023-04-15T06:09:54.129Z,8.7400
2023-04-15T06:10:55.198Z,8.6648
2023-04-15T06:11:56.220Z,8.9023
2023-04-15T06:12:57.192Z,9.1277
2023-04-15T06:13:58.352Z,9.3836
2023-04-15T06:15:00.235Z,9.6346
2023-04-15T06:16:00.429Z,9.7489
2023-04-15T06:17:01.436Z,9.6920
2023-04-15T06:18:02.540Z,9.6074
2023-04-15T06:19:03.510Z,9.5680
2023-04-15T06:20:04.468Z,9.5256
2023-04-15T06:21:05.509Z,9.5639
2023-04-15T06:22:06.560Z,9.7645
2023-04-15T06:23:07.554Z,9.8030
2023-04-15T06:24:08.704Z,9.7046
2023-04-15T06:25:09.626Z,9.7832
2023-04-15T06:26:10.747Z,9.7724
2023-04-15T06:27:11.723Z,9.7060
2023-04-15T06:28:12.752Z,9.6477
2023-04-15T06:29:13.850Z,9.4352
2023-04-15T06:30:14.827Z,9.2582
2023-04-15T06:31:15.863Z,9.2014
2023-04-15T06:32:16.949Z,9.2689
2023-04-15T06:33:17.989Z,9.3148
2023-04-15T06:34:19.014Z,9.2289
2023-04-15T06:35:20.054Z,9.3118
2023-04-15T06:36:21.076Z,9.2311
2023-04-15T06:37:22.131Z,9.2177
2023-04-15T06:38:23.151Z,9.3381
2023-04-15T06:39:24.267Z,9.5090
2023-04-15T06:40:25.303Z,9.6328
2023-04-15T06:41:26.269Z,9.5339
2023-04-15T06:42:27.307Z,9.4084
2023-04-15T06:43:28.333Z,9.4432
2023-04-15T06:44:29.403Z,9.4398
2023-04-15T06:45:30.511Z,9.5485
2023-04-15T06:46:31.471Z,9.8447
2023-04-15T06:47:32.516Z,10.2845
2023-04-15T06:48:33.510Z,10.3805
2023-04-15T06:49:34.628Z,10.1233
2023-04-15T06:50:35.662Z,9.9276
2023-04-15T06:51:36.664Z,10.0439
2023-04-15T06:52:37.706Z,10.3453
2023-04-15T06:53:38.715Z,10.5073
2023-04-15T06:54:39.818Z,10.2710
2023-04-15T06:55:40.830Z,10.0412
2023-04-15T06:56:41.813Z,9.8569
2023-04-15T06:57:42.875Z,9.6056
2023-04-15T06:58:43.947Z,9.4222
2023-04-15T06:59:44.902Z,9.3721
2023-04-15T07:00:45.957Z,9.4342
2023-04-15T07:01:46.956Z,9.5813
2023-04-15T07:02:48.056Z,9.5328
2023-04-15T07:03:49.128Z,9.6800
2023-04-15T07:04:50.149Z,9.8503
2023-04-15T07:05:51.135Z,9.9333
2023-04-15T07:06:52.223Z,10.0207
2023-04-15T07:07:53.253Z,10.1473
2023-04-15T07:08:54.288Z,10.2541
2023-04-15T07:09:55.343Z,10.0798
2023-04-15T07:10:56.359Z,9.9357
2023-04-15T07:11:57.397Z,9.7558
2023-04-15T07:12:58.401Z,9.8165
2023-04-15T07:13:59.475Z,9.9803
2023-04-15T07:15:00.516Z,9.9642
2023-04-15T07:16:01.650Z,9.7402
2023-04-15T07:17:02.608Z,9.9189
2023-04-15T07:18:03.621Z,10.0739
2023-04-15T07:19:04.817Z,9.9915
2023-04-15T07:20:05.684Z,9.8907
2023-04-15T07:21:06.710Z,9.9795
2023-04-15T07:22:07.777Z,10.0920
2023-04-15T07:23:08.982Z,10.1819
2023-04-15T07:24:09.799Z,10.3807
2023-04-15T07:25:11.183Z,10.5409
2023-04-15T07:26:11.933Z,10.7251
2023-04-15T07:27:12.944Z,10.7496
2023-04-15T07:28:13.973Z,10.4112
2023-04-15T07:29:15.020Z,10.1320
2023-04-15T07:30:16.062Z,9.9823
2023-04-15T07:31:17.184Z,9.9680
2023-04-15T07:32:18.128Z,9.9236
2023-04-15T07:33:19.171Z,9.9874
2023-04-15T07:34:20.399Z,10.1155
2023-04-15T07:35:21.233Z,9.9210
2023-04-15T07:36:22.323Z,9.8435
2023-04-15T07:37:23.332Z,10.1504
2023-04-15T07:38:24.375Z,10.3731
2023-04-15T07:39:25.411Z,10.3180
2023-04-15T07:40:26.493Z,9.8895
2023-04-15T07:41:27.572Z,9.5713
2023-04-15T07:42:28.537Z,9.4740
2023-04-15T07:43:29.595Z,9.6138
2023-04-15T07:44:30.619Z,9.7964
2023-04-15T07:45:31.680Z,10.0126
2023-04-15T07:46:32.774Z,10.0705
2023-04-15T07:47:33.787Z,10.0125
2023-04-15T07:48:35.610Z,10.0441
2023-04-15T07:49:35.916Z,9.9966
2023-04-15T07:50:36.991Z,9.6853
2023-04-15T07:51:38.069Z,9.7698
2023-04-15T07:52:39.057Z,10.0639
2023-04-15T07:53:40.118Z,9.9425
2023-04-15T07:54:41.138Z,9.8277
2023-04-15T07:55:42.184Z,9.8583
2023-04-15T07:56:43.280Z,10.0938
2023-04-15T07:57:44.214Z,10.0241
2023-04-15T07:58:45.260Z,9.9620
2023-04-15T07:59:46.299Z,10.1579
2023-04-15T08:00:47.392Z,10.1669
2023-04-15T08:01:48.477Z,10.0064
2023-04-15T08:02:49.553Z,9.6113
2023-04-15T08:03:50.671Z,9.3199
2023-04-15T08:04:51.704Z,9.4111
2023-04-15T08:05:52.619Z,9.3607
2023-04-15T08:06:53.636Z,9.3732
2023-04-15T08:07:54.641Z,9.2545
2023-04-15T08:08:55.747Z,9.2280
2023-04-15T08:09:56.680Z,9.3321
2023-04-15T08:10:57.766Z,9.4530
2023-04-15T08:11:58.837Z,9.4836
2023-04-15T08:12:59.899Z,9.5635
2023-04-15T08:14:00.835Z,9.6871
2023-04-15T08:15:01.924Z,9.3545
2023-04-15T08:16:03.005Z,9.3143
2023-04-15T08:17:04.038Z,9.4684
2023-04-15T08:18:05.020Z,9.6565
2023-04-15T08:19:06.046Z,9.7601
2023-04-15T08:20:07.082Z,9.7401
2023-04-15T08:21:08.159Z,9.5059
2023-04-15T08:22:15.371Z,9.4917
2023-04-15T08:23:10.166Z,9.5713
2023-04-15T08:24:11.261Z,9.8240
2023-04-15T08:25:12.246Z,9.8569
2023-04-15T08:26:13.388Z,9.8921
2023-04-15T08:27:14.433Z,10.0138
2023-04-15T08:28:15.410Z,9.9221
2023-04-15T08:29:16.437Z,10.1010
2023-04-15T08:30:17.479Z,10.2719
2023-04-15T08:31:18.557Z,10.4107
2023-04-15T08:32:19.636Z,10.2904
2023-04-15T08:33:20.593Z,10.3721
2023-04-15T08:34:21.626Z,10.5088
2023-04-15T08:35:22.806Z,10.5198
2023-04-15T08:36:23.736Z,10.4096
2023-04-15T08:37:24.668Z,10.2670
2023-04-15T08:38:25.710Z,10.4005
2023-04-15T08:39:26.732Z,10.4387
2023-04-15T08:40:27.795Z,10.4672
2023-04-15T08:41:28.814Z,10.6662
2023-04-15T08:42:29.915Z,10.6870
2023-04-15T08:43:30.892Z,10.7243
2023-04-15T08:44:31.972Z,10.6136
2023-04-15T08:45:32.998Z,10.6039
2023-04-15T08:46:34.032Z,10.7285
2023-04-15T08:47:35.073Z,11.0240
2023-04-15T08:48:36.057Z,11.0552
2023-04-15T08:49:37.100Z,10.8663
2023-04-15T08:50:38.142Z,10.8092
2023-04-15T08:51:39.187Z,10.8379
2023-04-15T08:52:40.261Z,10.9000
2023-04-15T08:53:41.266Z,11.0102
2023-04-15T08:54:42.308Z,11.0194
2023-04-15T08:55:43.309Z,11.0002
2023-04-15T08:56:44.414Z,10.9767
2023-04-15T08:57:45.450Z,11.0592
2023-04-15T08:58:46.465Z,11.0956
2023-04-15T08:59:47.528Z,10.9632
2023-04-15T09:00:48.650Z,10.8373
2023-04-15T09:01:49.628Z,10.4707
2023-04-15T09:02:50.730Z,9.9727
2023-04-15T09:03:51.777Z,9.8116
2023-04-15T09:04:52.921Z,10.0276
2023-04-15T09:05:53.762Z,10.1316
2023-04-15T09:06:54.782Z,10.1120
2023-04-15T09:07:55.935Z,10.3952
2023-04-15T09:08:56.861Z,10.3820
2023-04-15T09:09:57.923Z,10.3674
2023-04-15T09:10:58.990Z,10.5074
2023-04-15T09:11:59.998Z,10.6532
2023-04-15T09:13:01.089Z,10.7626
2023-04-15T09:14:02.080Z,10.6530
2023-04-15T09:15:03.141Z,10.6406
2023-04-15T09:16:04.232Z,10.6914
2023-04-15T09:17:05.295Z,10.7141
2023-04-15T09:18:06.264Z,10.8147
2023-04-15T09:19:07.265Z,11.1339
2023-04-15T09:20:08.300Z,11.2646
2023-04-15T09:21:09.638Z,11.3175
2023-04-15T09:22:10.357Z,11.3185
2023-04-15T09:23:11.484Z,11.2420
2023-04-15T09:24:12.433Z,11.2029
2023-04-15T09:25:13.514Z,10.9218
2023-04-15T09:26:14.510Z,10.6720
2023-04-15T09:27:15.544Z,10.8164
2023-04-15T09:28:16.619Z,10.9588
2023-04-15T09:29:17.622Z,10.8507
2023-04-15T09:30:18.685Z,10.9382
2023-04-15T09:31:19.747Z,10.8776
2023-04-15T09:32:20.712Z,10.7938
2023-04-15T09:33:21.906Z,10.5439
2023-04-15T09:34:22.956Z,10.4460
2023-04-15T09:35:23.929Z,10.4591
2023-04-15T09:36:24.986Z,10.3662
2023-04-15T09:37:32.395Z,10.3105
2023-04-15T09:38:27.117Z,10.2211
2023-04-15T09:39:28.113Z,10.3676
2023-04-15T09:40:29.152Z,10.5950
2023-04-15T09:41:30.199Z,10.7755
2023-04-15T09:42:31.238Z,10.7014
2023-04-15T09:43:32.292Z,10.2610
2023-04-15T09:44:33.314Z,10.0348
2023-04-15T09:45:34.337Z,9.9390
2023-04-15T09:46:35.433Z,9.8583
2023-04-15T09:47:36.492Z,9.8490
2023-04-15T09:48:37.602Z,9.8457
2023-04-15T09:49:38.578Z,10.0364
2023-04-15T09:50:39.562Z,10.2285
2023-04-15T09:51:41.340Z,10.5003
2023-04-15T09:52:41.634Z,10.5967
2023-04-15T09:53:42.710Z,10.6061
2023-04-15T09:54:43.695Z,10.6455
2023-04-15T09:55:44.745Z,10.7048
2023-04-15T09:56:45.806Z,10.7939
2023-04-15T09:57:46.828Z,10.8093
2023-04-15T09:58:47.912Z,10.7491
2023-04-15T09:59:48.873Z,10.8789
2023-04-15T10:00:49.973Z,11.0230
2023-04-15T10:01:51.075Z,11.1902
2023-04-15T10:02:52.056Z,11.1363
2023-04-15T10:03:53.115Z,11.1172
2023-04-15T10:04:54.110Z,11.1932
2023-04-15T10:05:55.163Z,11.4273
2023-04-15T10:06:56.158Z,11.4714
2023-04-15T10:07:57.247Z,11.4808
2023-04-15T10:08:58.253Z,11.2178
2023-04-15T10:09:59.271Z,11.3727
2023-04-15T10:11:00.277Z,11.5307
2023-04-15T10:12:01.324Z,11.5124
2023-04-15T10:13:02.356Z,11.2298
2023-04-15T10:14:03.745Z,11.0774
2023-04-15T10:15:04.423Z,10.8784
2023-04-15T10:16:05.483Z,10.9293
2023-04-15T10:17:06.478Z,10.9386
2023-04-15T10:18:07.766Z,10.9531
2023-04-15T10:19:08.523Z,11.0752
2023-04-15T10:20:09.516Z,11.2848
2023-04-15T10:21:10.543Z,11.4354
2023-04-15T10:22:11.616Z,11.3963
2023-04-15T10:23:13.462Z,11.2667
2023-04-15T10:24:13.696Z,11.0909
2023-04-15T10:25:14.702Z,11.0933
2023-04-15T10:26:15.734Z,11.2806
2023-04-15T10:27:16.788Z,11.2022
2023-04-15T10:28:17.810Z,11.0725
2023-04-15T10:29:18.882Z,11.0474
2023-04-15T10:30:19.899Z,11.2006
2023-04-15T10:31:20.971Z,11.2174
2023-04-15T10:32:21.991Z,11.1466
2023-04-15T10:33:23.006Z,11.0719
2023-04-15T10:34:24.061Z,10.9724
2023-04-15T10:35:25.095Z,10.8205
2023-04-15T10:36:26.108Z,10.8855
2023-04-15T10:37:27.188Z,10.8102
2023-04-15T10:38:28.206Z,10.8153
2023-04-15T10:39:29.279Z,11.0383
2023-04-15T10:40:30.302Z,11.3197
2023-04-15T10:41:31.387Z,11.3753
2023-04-15T10:42:32.385Z,11.4320
2023-04-15T10:43:33.379Z,11.2507
2023-04-15T10:44:34.471Z,11.2436
2023-04-15T10:45:35.505Z,11.1793
2023-04-15T10:46:36.564Z,11.2375
2023-04-15T10:47:37.597Z,11.1450
2023-04-15T10:48:38.610Z,11.1069
2023-04-15T10:49:39.626Z,11.2556
2023-04-15T10:50:40.732Z,11.3115
2023-04-15T10:51:41.756Z,11.2060
2023-04-15T10:52:42.738Z,11.0526
2023-04-15T10:53:43.801Z,10.9623
2023-04-15T10:54:44.806Z,10.8651
2023-04-15T10:55:45.867Z,10.9666
2023-04-15T10:56:46.899Z,11.1974
2023-04-15T10:57:47.934Z,11.2092
2023-04-15T10:58:48.998Z,11.2445
2023-04-15T10:59:50.029Z,11.0649
2023-04-15T11:00:51.068Z,10.8771
2023-04-15T11:01:52.194Z,10.9423
2023-04-15T11:02:53.161Z,10.7949
2023-04-15T11:03:54.325Z,10.7995
2023-04-15T11:04:55.560Z,10.9177
2023-04-15T11:05:56.316Z,11.0137
2023-04-15T11:06:57.303Z,10.9397
2023-04-15T11:07:58.364Z,10.9109
2023-04-15T11:08:59.463Z,10.9811
2023-04-15T11:10:00.434Z,11.1100
2023-04-15T11:11:01.512Z,11.3008
2023-04-15T11:12:02.503Z,11.3616
2023-04-15T11:13:03.552Z,11.1677
2023-04-15T11:14:04.733Z,11.1253
2023-04-15T11:15:05.605Z,11.3266
2023-04-15T11:16:06.748Z,11.3959
2023-04-15T11:17:07.760Z,11.4729
2023-04-15T11:18:08.907Z,11.4506
2023-04-15T11:19:09.883Z,11.2967
2023-04-15T11:20:10.913Z,11.2709
2023-04-15T11:21:12.035Z,11.1307
2023-04-15T11:22:12.949Z,10.9973
2023-04-15T11:23:15.015Z,10.9911
2023-04-15T11:24:15.104Z,11.2040
2023-04-15T11:25:16.075Z,11.3948
2023-04-15T11:26:17.187Z,11.3682
2023-04-15T11:27:18.183Z,11.3616
2023-04-15T11:28:19.181Z,11.5619
2023-04-15T11:29:20.239Z,11.3992
2023-04-15T11:30:21.302Z,11.1224
2023-04-15T11:31:22.461Z,11.0167
2023-04-15T11:32:23.415Z,10.9710
2023-04-15T11:33:24.447Z,10.9073
2023-04-15T11:34:25.449Z,11.0150
2023-04-15T11:35:26.533Z,11.1159
2023-04-15T11:36:27.614Z,11.0941
2023-04-15T11:37:28.592Z,10.7569
2023-04-15T11:38:29.640Z,10.5533
2023-04-15T11:39:30.686Z,10.6223
2023-04-15T11:40:31.761Z,10.8141
2023-04-15T11:41:32.830Z,10.6268
2023-04-15T11:42:48.571Z,10.5929
2023-04-15T11:43:34.853Z,10.5648
2023-04-15T11:44:35.887Z,10.5816
2023-04-15T11:45:37.039Z,10.6314
2023-04-15T11:46:37.882Z,10.7822
2023-04-15T11:47:38.926Z,10.8710
2023-04-15T11:48:39.937Z,10.8931
2023-04-15T11:49:40.982Z,10.8532
2023-04-15T11:50:42.022Z,10.8148
2023-04-15T11:51:43.103Z,10.7561
2023-04-15T11:52:44.102Z,10.7356
2023-04-15T11:53:45.123Z,10.7831
2023-04-15T11:54:46.193Z,10.8523
2023-04-15T11:55:47.220Z,10.6293
2023-04-15T11:56:48.282Z,10.3370
2023-04-15T11:57:49.309Z,10.2776
2023-04-15T11:58:50.329Z,10.1211
2023-04-15T11:59:51.373Z,10.0875
2023-04-15T12:00:52.424Z,10.2539
2023-04-15T12:01:53.483Z,10.4985
2023-04-15T12:02:54.756Z,10.6288
2023-04-15T12:03:55.577Z,10.6520
2023-04-15T12:04:56.624Z,10.6896
2023-04-15T12:05:57.573Z,10.7479
2023-04-15T12:06:58.617Z,10.7972
2023-04-15T12:07:59.650Z,10.7998
2023-04-15T12:09:00.710Z,10.8906
2023-04-15T12:10:01.700Z,10.9415
2023-04-15T12:11:02.746Z,10.9459
2023-04-15T12:12:03.877Z,11.1100
2023-04-15T12:13:04.846Z,11.1604
2023-04-15T12:14:06.163Z,11.3127
2023-04-15T12:15:06.905Z,11.4807
2023-04-15T12:16:07.974Z,11.6553
2023-04-15T12:17:09.034Z,11.7040
2023-04-15T12:18:10.070Z,11.7311
2023-04-15T12:19:11.026Z,11.7699
2023-04-15T12:20:12.109Z,11.3985
2023-04-15T12:21:13.212Z,11.1591
2023-04-15T12:22:14.305Z,11.2468
2023-04-15T12:23:15.324Z,11.1313
2023-04-15T12:24:16.408Z,10.9711
2023-04-15T12:25:17.360Z,10.8723
2023-04-15T12:26:18.406Z,10.8106
2023-04-15T12:27:19.439Z,10.6306
2023-04-15T12:28:20.422Z,10.5686
2023-04-15T12:29:21.444Z,10.6822
2023-04-15T12:30:22.463Z,10.9389
2023-04-15T12:31:23.524Z,11.0879
2023-04-15T12:32:24.637Z,11.2414
2023-04-15T12:33:25.604Z,11.4115